Time;durP1;ratioP1;P1;durP2;ratioP2;P2;SDS_P1;SDS_P2;PMS_P1;PMS_P2;Temp;Humidity;BMP_temperature;BMP_pressure;BME280_temperature;BME280_humidity;BME280_pressure;Samples;Min_cycle;Max_cycle;Signal;HPM_P1;HPM_P2
2022/12/20 00:01:20;;;;;;;55.70;21.98;;;;;;;-3.71;93.08;98859.28;5026475;28;20119;-57
2022/12/20 00:03:48;;;;;;;;;;;;;;;-2.29;92.77;99079.16;5027292;28;20054;-57
2022/12/20 00:06:15;;;;;;;54.13;17.35;;;;;;;-2.38;93.95;99083.25;5026739;28;20002;-56
2022/12/20 00:08:42;;;;;;;50.63;18.63;;;;;;;-2.48;94.05;99081.16;5026958;28;20169;-57
2022/12/20 00:11:08;;;;;;;55.88;19.00;;;;;;;-2.43;93.93;99075.84;5026388;28;20056;-57
2022/12/20 00:13:36;;;;;;;45.13;17.23;;;;;;;-3.09;94.55;98988.63;5041410;28;20068;-58
2022/12/20 00:16:15;;;;;;;39.95;15.98;;;;;;;-2.62;94.38;99058.03;5041321;28;20546;-57
2022/12/20 00:18:42;;;;;;;27.77;12.65;;;;;;;-2.67;93.87;99065.25;5026281;28;20049;-57
2022/12/20 00:21:10;;;;;;;39.38;16.65;;;;;;;-2.49;94.26;99084.94;5041050;28;20493;-58
2022/12/20 00:23:37;;;;;;;38.50;16.90;;;;;;;-2.55;94.12;99077.75;5026195;28;20089;-57
2022/12/20 00:26:10;;;;;;;32.53;12.88;;;;;;;-2.52;93.63;99090.84;5026093;28;20144;-55
2022/12/20 00:28:38;;;;;;;27.73;10.38;;;;;;;-2.63;93.13;99132.34;5026303;28;20072;-55
2022/12/20 00:31:06;;;;;;;32.72;13.63;;;;;;;-2.57;93.46;99098.84;5025978;28;20107;-57
2022/12/20 00:33:37;;;;;;;29.80;12.25;;;;;;;-2.75;94.02;99047.44;5025994;28;20057;-55
2022/12/20 00:36:06;;;;;;;31.48;13.10;;;;;;;-2.63;94.58;99097.09;5025929;28;20046;-55
2022/12/20 00:38:33;;;;;;;35.90;13.68;;;;;;;-2.70;94.42;99077.38;5026159;28;20045;-59
2022/12/20 00:41:06;;;;;;;29.98;13.10;;;;;;;-3.08;94.83;99034.47;5040743;28;20050;-57
2022/12/20 00:43:33;;;;;;;;;;;;;;;-2.68;93.99;99090.72;5026054;28;20456;-57
2022/12/20 00:46:00;;;;;;;28.23;11.32;;;;;;;-2.75;94.04;99090.81;5025612;28;19997;-56
2022/12/20 00:48:29;;;;;;;29.65;11.57;;;;;;;-2.77;94.18;99102.97;5025981;28;20080;-58
2022/12/20 00:51:00;;;;;;;30.20;11.55;;;;;;;-2.92;95.36;99067.38;5025500;28;20131;-57
2022/12/20 00:53:27;;;;;;;31.02;11.80;;;;;;;-2.74;95.81;99097.91;5025795;28;20053;-57
2022/12/20 00:55:54;;;;;;;38.60;13.35;;;;;;;-2.69;95.25;99095.31;5025207;28;20129;-57
2022/12/20 00:58:21;;;;;;;39.92;14.85;;;;;;;-2.71;93.86;99097.44;5025993;28;20441;-57
2022/12/20 01:00:48;;;;;;;42.47;15.73;;;;;;;-2.83;93.00;99072.22;5025915;28;20141;-57
2022/12/20 01:03:21;;;;;;;44.65;16.67;;;;;;;-2.94;93.53;99059.44;5026292;28;20138;-57
2022/12/20 01:06:00;;;;;;;53.58;19.75;;;;;;;-2.77;94.92;99071.28;5040021;28;20049;-58
2022/12/20 01:08:29;;;;;;;48.78;16.92;;;;;;;-2.75;95.92;99079.97;4985489;28;20068;-57
2022/12/20 01:11:07;;;;;;;43.60;16.25;;;;;;;-2.72;96.31;99074.09;5025259;28;20519;-57
2022/12/20 01:13:36;;;;;;;30.75;12.88;;;;;;;-2.70;94.04;99061.13;5040216;28;20115;-55
2022/12/20 01:16:11;;;;;;;32.22;12.02;;;;;;;-2.87;93.09;99045.78;5024895;28;20062;-56
2022/12/20 01:18:38;;;;;;;33.78;12.52;;;;;;;-2.75;93.74;99071.84;5025595;28;20049;-55
2022/12/20 01:21:13;;;;;;;35.05;11.10;;;;;;;-2.81;93.14;99070.06;5025282;28;20056;-56
2022/12/20 01:23:41;;;;;;;27.45;11.52;;;;;;;-2.82;90.92;99063.00;5025399;28;20100;-55
2022/12/20 01:26:11;;;;;;;31.10;11.52;;;;;;;-2.89;91.65;99059.56;5024771;28;20503;-57
2022/12/20 01:28:40;;;;;;;38.42;15.52;;;;;;;-2.99;92.86;99053.94;5025482;28;20046;-57
2022/12/20 01:31:12;;;;;;;29.65;11.30;;;;;;;-3.11;93.46;99053.06;5025028;28;20096;-55
2022/12/20 01:33:38;;;;;;;33.30;11.68;;;;;;;-3.08;93.79;99049.09;5025023;28;20367;-56
2022/12/20 01:36:09;;;;;;;32.67;11.27;;;;;;;-3.32;94.46;99013.00;5025207;28;20107;-55
2022/12/20 01:38:36;;;;;;;38.15;14.57;;;;;;;-3.14;95.44;99030.00;5040423;28;20053;-57
2022/12/20 01:41:03;;;;;;;28.90;10.18;;;;;;;-3.18;95.00;99022.56;5024639;28;20494;-55
2022/12/20 01:43:52;;;;;;;32.47;10.75;;;;;;;-3.21;95.38;99031.16;5024796;28;20072;-56
2022/12/20 01:46:21;;;;;;;26.83;9.63;;;;;;;-3.32;96.00;99029.28;5024608;28;20053;-56
2022/12/20 01:49:01;;;;;;;29.55;10.40;;;;;;;-3.93;96.73;98912.34;5008230;28;20439;-56
2022/12/20 01:51:30;;;;;;;37.22;14.10;;;;;;;-3.14;95.58;99018.31;5024832;28;20467;-55
2022/12/20 01:54:03;;;;;;;44.05;16.20;;;;;;;-3.13;94.40;99022.69;5024528;28;20626;-55
2022/12/20 01:56:30;;;;;;;66.80;28.33;;;;;;;-3.20;94.13;99011.13;5024388;28;20065;-58
2022/12/20 01:58:57;;;;;;;44.00;19.33;;;;;;;-3.21;93.82;99017.63;5023210;28;20097;-55
2022/12/20 02:01:24;;;;;;;46.72;14.50;;;;;;;-3.18;91.82;99014.44;5024520;28;20053;-57
2022/12/20 02:03:53;;;;;;;34.60;12.05;;;;;;;-3.24;91.82;99021.59;5024437;28;20092;-57
2022/12/20 02:06:23;;;;;;;34.47;12.63;;;;;;;-3.78;92.18;98958.75;5023515;28;20057;-58
2022/12/20 02:08:55;;;;;;;34.38;13.15;;;;;;;-3.26;93.30;99071.69;5024478;28;20494;-57
2022/12/20 02:11:56;;;;;;;37.25;15.98;;;;;;;-3.21;94.95;99014.91;5022527;28;20496;-58
2022/12/20 02:14:49;;;;;;;36.75;15.02;;;;;;;-3.26;94.60;98995.81;5024570;28;20535;-57
2022/12/20 02:17:28;;;;;;;29.73;11.52;;;;;;;-3.36;94.10;99000.97;5022394;28;20096;-56
2022/12/20 02:20:05;;;;;;;38.22;12.32;;;;;;;-3.38;93.09;98994.97;5024475;28;20046;-56
2022/12/20 02:23:05;;;;;;;33.28;12.75;;;;;;;-3.26;92.51;98995.81;5024414;28;20057;-57
2022/12/20 02:25:57;;;;;;;25.17;10.63;;;;;;;-3.39;91.94;98998.75;5024129;28;20049;-58
2022/12/20 02:28:54;;;;;;;31.27;11.57;;;;;;;-3.41;92.74;98998.13;5024186;28;20061;-58
2022/12/20 02:31:28;;;;;;;30.40;11.80;;;;;;;-3.47;93.72;98988.25;5022444;28;20072;-56
2022/12/20 02:33:56;;;;;;;34.80;11.25;;;;;;;-3.88;93.19;98942.25;5023830;28;20057;-58
2022/12/20 02:36:24;;;;;;;31.63;11.00;;;;;;;-3.75;94.52;98959.13;5023640;28;20088;-58
2022/12/20 02:38:51;;;;;;;27.45;10.27;;;;;;;-3.59;94.43;98980.09;5024003;28;20064;-56
2022/12/20 02:41:31;;;;;;;35.55;13.05;;;;;;;-3.53;95.21;98981.91;5024227;28;20088;-57
2022/12/20 02:46:55;;;;;;;40.65;15.57;;;;;;;-3.56;94.31;98984.22;5023976;28;20053;-58
2022/12/20 02:49:26;;;;;;;55.85;18.98;;;;;;;-3.58;93.77;98973.63;5023946;28;20045;-56
2022/12/20 02:51:55;;;;;;;30.02;10.88;;;;;;;-3.73;94.93;98978.66;5023582;28;20500;-57
2022/12/20 02:54:22;;;;;;;36.05;14.02;;;;;;;-4.13;95.08;98911.84;5023829;28;20136;-56
2022/12/20 02:56:55;;;;;;;40.47;16.48;;;;;;;-3.71;95.14;98981.13;5024053;28;20140;-58
2022/12/20 02:59:31;;;;;;;30.77;11.43;;;;;;;-3.72;95.13;98979.50;5024105;28;20129;-59
2022/12/20 03:01:58;;;;;;;27.67;11.25;;;;;;;-3.71;94.75;98981.13;5024303;28;20061;-57
2022/12/20 03:04:33;;;;;;;27.30;9.55;;;;;;;-3.70;94.56;98983.59;5022461;28;20095;-58
2022/12/20 03:07:09;;;;;;;26.58;10.30;;;;;;;-3.64;93.85;98971.03;5022777;28;20420;-59
2022/12/20 03:09:39;;;;;;;28.73;10.18;;;;;;;-3.72;93.91;98974.06;5024067;28;20440;-56
2022/12/20 03:12:08;;;;;;;29.70;10.77;;;;;;;-3.68;93.77;98988.78;5022065;28;20057;-58
2022/12/20 03:14:34;;;;;;;29.98;12.15;;;;;;;-4.06;94.25;98940.44;5023600;28;20051;-57
2022/12/20 03:17:01;;;;;;;40.38;15.77;;;;;;;-3.74;94.70;98971.59;5023495;28;20061;-56
2022/12/20 03:19:28;;;;;;;30.35;12.48;;;;;;;-3.77;94.73;98982.06;5027098;28;20528;-58
2022/12/20 03:21:54;;;;;;;30.50;11.38;;;;;;;-3.70;95.12;98978.19;5027424;28;20881;-58
2022/12/20 03:24:21;;;;;;;38.17;13.43;;;;;;;-3.69;94.47;98973.59;5027431;28;20065;-58
2022/12/20 03:26:48;;;;;;;31.73;12.05;;;;;;;-3.81;93.18;98953.81;5027493;28;20178;-56
2022/12/20 03:29:14;;;;;;;37.42;13.52;;;;;;;-3.73;92.82;98980.56;5026180;28;20077;-58
2022/12/20 03:31:41;;;;;;;26.38;10.80;;;;;;;-4.13;92.52;98915.38;5025398;28;20103;-58
2022/12/20 03:34:08;;;;;;;25.65;10.25;;;;;;;-3.81;93.12;98980.88;5027429;28;20073;-59
2022/12/20 03:36:34;;;;;;;30.58;11.52;;;;;;;-3.81;93.67;98978.19;5025565;28;20131;-56
2022/12/20 03:39:01;;;;;;;23.63;10.52;;;;;;;-3.90;93.91;98966.00;5027249;28;20065;-58
2022/12/20 03:41:28;;;;;;;26.13;10.40;;;;;;;-4.17;93.24;98926.88;5025496;28;20092;-58
2022/12/20 03:43:54;;;;;;;27.77;12.50;;;;;;;-3.86;93.29;98945.56;5027291;28;20135;-58
2022/12/20 03:46:21;;;;;;;48.65;19.80;;;;;;;-4.00;93.12;98944.13;5027106;28;20057;-58
2022/12/20 03:48:47;;;;;;;71.22;29.73;;;;;;;-3.99;93.52;98962.00;5027013;28;20050;-59
2022/12/20 03:51:14;;;;;;;50.40;21.15;;;;;;;-4.10;94.10;98933.00;5025730;28;20111;-58
2022/12/20 03:53:41;;;;;;;43.75;19.35;;;;;;;-3.76;94.19;98972.91;5027061;28;20123;-58
2022/12/20 03:56:08;;;;;;;43.42;17.75;;;;;;;-3.78;94.15;98975.81;5026963;28;20278;-58
2022/12/20 03:58:35;;;;;;;41.10;15.82;;;;;;;-3.78;94.62;98969.59;5027446;28;20207;-58
2022/12/20 04:01:01;;;;;;;33.92;13.07;;;;;;;-4.93;93.68;98786.97;5027026;28;20087;-58
2022/12/20 04:03:28;;;;;;;35.35;11.75;;;;;;;-3.73;93.67;98977.84;5025373;28;20060;-58
2022/12/20 04:05:55;;;;;;;34.38;12.82;;;;;;;-3.72;93.74;98985.72;5026453;28;20049;-56
2022/12/20 04:08:21;;;;;;;38.75;15.32;;;;;;;-4.43;92.84;98865.06;5025227;28;20449;-56
2022/12/20 04:13:33;;;;;;;30.67;11.88;;;;;;;-3.71;91.88;98989.25;5026179;28;20057;-56
2022/12/20 04:16:00;;;;;;;30.02;10.63;;;;;;;-3.84;91.92;98986.75;5026046;28;20137;-58
2022/12/20 04:18:27;;;;;;;27.92;9.50;;;;;;;-4.06;92.89;98945.03;5026453;28;20060;-58
2022/12/20 04:20:53;;;;;;;35.63;12.95;;;;;;;-3.86;93.16;98994.28;5024659;28;20092;-58
2022/12/20 04:23:20;;;;;;;32.45;11.00;;;;;;;-3.87;93.62;98981.81;5026378;28;20062;-58
2022/12/20 04:25:47;;;;;;;30.05;11.82;;;;;;;-3.89;93.00;98983.91;5026079;28;20052;-58
2022/12/20 04:28:14;;;;;;;33.20;12.38;;;;;;;-3.99;92.67;98980.94;5026266;28;20519;-58
2022/12/20 04:30:40;;;;;;;30.15;12.57;;;;;;;-3.97;92.71;98978.81;5025467;28;20057;-56
2022/12/20 04:33:07;;;;;;;32.55;12.07;;;;;;;-3.98;92.81;98975.28;5026153;28;20540;-56
2022/12/20 04:35:33;;;;;;;37.85;14.18;;;;;;;-3.94;94.09;98981.06;5024286;28;20080;-57
2022/12/20 04:38:00;;;;;;;32.92;12.48;;;;;;;-4.08;94.83;98952.56;5026382;28;20089;-58
2022/12/20 04:40:26;;;;;;;34.70;13.30;;;;;;;-4.08;94.88;98974.19;5024692;28;20570;-56
2022/12/20 04:42:53;;;;;;;34.42;13.30;;;;;;;-3.95;94.49;98984.84;5024528;28;20045;-58
2022/12/20 04:45:20;;;;;;;44.33;17.35;;;;;;;-3.92;94.09;98987.09;5025279;28;20139;-58
2022/12/20 04:47:46;;;;;;;31.98;11.93;;;;;;;-4.19;92.50;98939.81;5025961;28;20107;-58
2022/12/20 04:50:13;;;;;;;30.67;11.20;;;;;;;-3.90;90.46;98979.53;5025448;28;20120;-56
2022/12/20 04:55:25;;;;;;;70.53;24.08;;;;;;;-4.01;89.96;98974.91;5025513;28;20099;-55
2022/12/20 04:57:52;;;;;;;56.00;22.60;;;;;;;-4.04;90.48;98978.09;5025800;28;20053;-57
2022/12/20 05:00:19;;;;;;;72.47;27.27;;;;;;;-4.49;91.35;98911.94;5025532;28;20057;-57
2022/12/20 05:02:45;;;;;;;51.20;20.42;;;;;;;-4.10;92.04;98976.31;5018599;28;20058;-55
2022/12/20 05:05:13;;;;;;;45.72;19.60;;;;;;;-4.26;92.77;98971.53;5025224;28;20062;-57
2022/12/20 05:07:39;;;;;;;48.47;19.20;;;;;;;-4.29;93.20;98936.81;5025710;28;20060;-55
2022/12/20 05:10:06;;;;;;;36.47;17.33;;;;;;;-4.11;93.79;98978.16;5023927;28;20097;-57
2022/12/20 05:12:33;;;;;;;52.90;21.70;;;;;;;-4.05;94.49;98979.16;5025258;28;20083;-55
2022/12/20 05:15:00;;;;;;;62.47;25.02;;;;;;;-3.93;95.05;98975.44;5040100;28;20060;-57
2022/12/20 05:17:26;;;;;;;59.97;24.27;;;;;;;-3.98;95.14;98978.00;5024834;28;20053;-56
2022/12/20 05:19:53;;;;;;;48.20;18.30;;;;;;;-4.09;93.10;98976.06;5025106;28;20515;-57
2022/12/20 05:27:50;;;;;;;52.92;21.75;;;;;;;-4.14;92.96;98964.31;5025147;28;20050;-57
2022/12/20 05:30:17;;;;;;;62.15;24.55;;;;;;;-4.16;91.93;98971.81;5025097;28;20049;-56
2022/12/20 05:32:43;;;;;;;60.08;26.50;;;;;;;-4.24;92.38;98958.59;5031508;28;20603;-57
2022/12/20 05:35:10;;;;;;;65.25;25.13;;;;;;;-4.17;92.97;98970.19;5004436;28;20050;-56
2022/12/20 05:37:37;;;;;;;65.47;29.92;;;;;;;-4.46;91.94;98927.72;5005100;28;20543;-55
2022/12/20 05:40:04;;;;;;;87.53;39.53;;;;;;;-4.56;91.30;98944.47;5005305;28;20053;-58
2022/12/20 05:42:31;;;;;;;117.82;45.65;;;;;;;-4.46;92.48;98965.56;5003511;28;20081;-56
2022/12/20 05:44:57;;;;;;;104.25;38.00;;;;;;;-4.42;92.98;98964.88;5019894;28;20064;-58
2022/12/20 05:47:24;;;;;;;87.82;35.03;;;;;;;-4.60;93.59;98937.03;5004507;28;20041;-56
2022/12/20 05:49:50;;;;;;;69.50;27.52;;;;;;;-4.28;94.71;98968.25;5004890;28;20057;-59
2022/12/20 05:52:17;;;;;;;38.38;15.00;;;;;;;-4.29;93.76;98969.28;5019247;28;20080;-60
2022/12/20 05:54:43;;;;;;;30.95;12.35;;;;;;;-4.32;93.64;98967.03;5023648;28;20136;-61
2022/12/20 05:57:10;;;;;;;36.70;12.45;;;;;;;-4.73;92.78;98922.63;5023976;28;20056;-54
2022/12/20 05:59:37;;;;;;;52.58;18.17;;;;;;;-4.59;92.04;98901.69;5024204;28;20489;-55
2022/12/20 06:02:03;;;;;;;52.70;17.65;;;;;;;-4.17;92.16;98964.75;5022212;28;20646;-58
2022/12/20 06:04:31;;;;;;;47.95;18.98;;;;;;;-4.10;92.10;98933.00;5023936;28;20099;-55
2022/12/20 06:06:58;;;;;;;43.20;18.25;;;;;;;-3.82;91.00;98962.97;5024231;28;20076;-59
2022/12/20 06:09:25;;;;;;;47.08;18.02;;;;;;;-4.37;91.08;98856.00;5024224;28;20084;-60
2022/12/20 06:11:52;;;;;;;66.18;23.90;;;;;;;-3.84;89.03;98932.63;5022818;28;20053;-56
2022/12/20 06:14:18;;;;;;;44.13;19.63;;;;;;;-3.85;88.06;98925.53;5024711;28;20514;-60
2022/12/20 06:16:45;;;;;;;51.88;20.17;;;;;;;-3.72;88.69;98947.84;5024230;28;20062;-58
2022/12/20 06:19:13;;;;;;;45.25;19.17;;;;;;;-3.64;89.85;98946.66;5022931;28;20591;-57
2022/12/20 06:21:47;;;;;;;40.75;17.00;;;;;;;-3.78;90.28;98920.88;5022769;28;20602;-55
2022/12/20 06:24:14;;;;;;;35.65;14.13;;;;;;;-3.58;90.07;98951.13;5022832;28;20154;-59
2022/12/20 06:26:41;;;;;;;26.10;11.13;;;;;;;-3.59;88.75;98979.28;5024282;28;20504;-60
2022/12/20 06:29:12;;;;;;;37.38;13.93;;;;;;;-6.07;87.71;98552.50;5023894;28;20145;-56
2022/12/20 06:31:39;;;;;;;35.83;15.20;;;;;;;-3.57;87.76;98966.31;5023728;28;20112;-56
2022/12/20 06:34:06;;;;;;;46.55;17.92;;;;;;;-3.43;88.27;98956.94;5024153;28;20552;-59
2022/12/20 06:36:33;;;;;;;44.53;18.13;;;;;;;-3.34;88.03;98960.94;5024012;28;20057;-60
2022/12/20 06:39:00;;;;;;;43.95;19.05;;;;;;;-3.34;87.42;98923.84;5024297;28;20107;-56
2022/12/20 06:41:35;;;;;;;41.92;17.80;;;;;;;-3.44;86.41;98898.41;5023694;28;20055;-60
2022/12/20 06:44:02;;;;;;;34.75;14.18;;;;;;;-2.84;85.61;98951.25;5024007;28;20164;-58
2022/12/20 06:46:29;;;;;;;32.17;11.57;;;;;;;-2.97;85.56;98962.34;5023822;28;20054;-57
2022/12/20 06:48:56;;;;;;;39.03;14.13;;;;;;;-2.90;86.13;98957.63;5022302;28;20050;-59
2022/12/20 06:51:23;;;;;;;36.83;13.35;;;;;;;-2.77;86.19;98951.13;5023819;28;20054;-59
2022/12/20 06:53:50;;;;;;;30.35;12.48;;;;;;;-2.60;86.06;98944.72;5027007;28;20056;-56
2022/12/20 06:56:16;;;;;;;37.28;14.55;;;;;;;-2.51;85.80;98956.84;5027648;28;20049;-58
2022/12/20 06:58:45;;;;;;;26.02;10.40;;;;;;;-2.40;85.01;98944.31;5027697;28;20089;-59
2022/12/20 07:01:12;;;;;;;28.58;12.32;;;;;;;-2.28;84.53;98935.06;5027410;28;20499;-56
2022/12/20 07:03:39;;;;;;;39.63;14.80;;;;;;;-2.21;84.35;98935.75;5022967;28;20575;-59
2022/12/20 07:06:06;;;;;;;46.05;17.35;;;;;;;-2.97;84.39;98837.66;5026515;28;20053;-61
2022/12/20 07:08:32;;;;;;;35.25;13.90;;;;;;;-2.72;84.58;98813.78;5012226;28;20455;-57
2022/12/20 07:11:06;;;;;;;40.28;14.23;;;;;;;-2.02;84.75;98896.47;5025849;28;20055;-60
2022/12/20 07:13:33;;;;;;;38.05;14.77;;;;;;;-1.55;84.31;98919.53;5025875;28;20053;-64
2022/12/20 07:16:02;;;;;;;943.30;318.08;;;;;;;-1.37;83.78;98918.47;5026374;28;20069;-57
2022/12/20 07:18:30;;;;;;;1095.43;386.42;;;;;;;-1.16;83.59;98920.44;5025326;28;20166;-58
2022/12/20 07:21:01;;;;;;;420.83;131.85;;;;;;;-1.36;83.06;98856.78;5024294;28;20574;-68
2022/12/20 07:23:28;;;;;;;73.80;32.22;;;;;;;-1.26;82.91;98827.00;5026476;28;20050;-75
2022/12/20 07:25:56;;;;;;;38.50;17.02;;;;;;;-0.51;82.34;98909.63;5026423;28;20077;-65
2022/12/20 07:28:24;;;;;;;121.97;50.03;;;;;;;-0.39;80.27;98892.06;5026153;28;20103;-72
2022/12/20 07:30:52;;;;;;;42.00;21.67;;;;;;;-0.38;79.64;98865.69;5025345;28;20053;-58
2022/12/20 07:33:19;;;;;;;37.28;19.33;;;;;;;-0.01;79.72;98896.56;5027020;28;20056;-74
2022/12/20 07:35:46;;;;;;;29.13;14.02;;;;;;;-0.11;79.76;98866.47;5025745;28;20645;-58
2022/12/20 07:38:19;;;;;;;796.78;353.13;;;;;;;-0.37;79.06;98758.44;5026078;28;20092;-62
2022/12/20 07:40:46;;;;;;;243.52;109.55;;;;;;;0.15;79.43;98804.88;5026671;28;20076;-58
2022/12/20 07:43:13;;;;;;;46.42;24.33;;;;;;;0.62;78.50;98850.22;5025882;28;20148;-60
2022/12/20 07:45:39;;;;;;;64.95;31.10;;;;;;;0.11;77.07;98736.50;5024628;28;20121;-62
2022/12/20 07:48:07;;;;;;;33.55;15.88;;;;;;;-0.76;76.00;98563.81;5041516;28;20045;-65
2022/12/20 07:50:40;;;;;;;40.83;16.85;;;;;;;1.01;75.13;98858.94;5016182;28;20136;-57
2022/12/20 07:53:09;;;;;;;40.42;17.55;;;;;;;1.05;75.17;98881.84;5026252;28;20370;-67
2022/12/20 07:55:38;;;;;;;48.47;18.50;;;;;;;1.16;75.84;98876.19;5026104;28;20062;-56
2022/12/20 07:58:08;;;;;;;37.95;14.20;;;;;;;1.03;74.65;98830.28;5026095;28;20045;-74
2022/12/20 08:00:36;;;;;;;25.60;11.23;;;;;;;0.38;75.02;98742.66;5040795;28;20402;-59
2022/12/20 08:03:12;;;;;;;25.08;10.23;;;;;;;0.99;75.56;98796.44;5025943;28;20509;-61
2022/12/20 08:05:45;;;;;;;29.50;12.40;;;;;;;0.51;74.70;98744.91;5026007;28;20139;-63
2022/12/20 08:08:12;;;;;;;29.58;13.55;;;;;;;1.76;74.56;98872.06;5024642;28;20495;-61
2022/12/20 08:10:40;;;;;;;27.20;13.30;;;;;;;1.90;73.47;98867.75;5025265;28;20061;-58
2022/12/20 08:13:07;;;;;;;29.20;14.57;;;;;;;2.17;73.50;98873.78;5024718;28;20088;-59
2022/12/20 08:15:35;;;;;;;61.30;26.27;;;;;;;2.37;72.43;98862.88;5024834;28;20058;-58
2022/12/20 08:18:02;;;;;;;60.70;29.10;;;;;;;2.32;71.89;98824.59;5025875;28;20054;-58
2022/12/20 08:20:29;;;;;;;112.97;52.50;;;;;;;2.22;70.98;98772.63;5023596;28;20056;-58
2022/12/20 08:22:55;;;;;;;129.13;65.13;;;;;;;2.98;70.81;98864.44;5025044;28;20049;-67
2022/12/20 08:25:22;;;;;;;58.22;29.98;;;;;;;3.22;69.66;98864.66;5005426;28;20064;-63
2022/12/20 08:27:49;;;;;;;38.75;20.40;;;;;;;3.29;69.31;98871.47;5016844;28;20088;-63
2022/12/20 08:30:16;;;;;;;43.38;20.55;;;;;;;3.21;68.99;98832.91;5025413;28;20049;-57
2022/12/20 08:32:42;;;;;;;28.83;13.75;;;;;;;3.63;67.58;98856.03;5023810;28;20069;-61
2022/12/20 08:35:09;;;;;;;34.50;16.75;;;;;;;3.58;67.51;98853.28;5020095;28;20500;-61
2022/12/20 08:37:36;;;;;;;44.53;23.27;;;;;;;2.95;67.18;98734.47;5024968;28;20053;-67
2022/12/20 08:40:03;;;;;;;46.28;23.33;;;;;;;3.67;67.74;98835.16;5023504;28;20150;-68
2022/12/20 08:42:30;;;;;;;32.45;15.85;;;;;;;4.01;66.86;98852.53;5022302;28;20053;-63
2022/12/20 08:44:57;;;;;;;39.35;18.40;;;;;;;4.24;66.50;98854.53;5024609;28;20049;-71
2022/12/20 08:47:23;;;;;;;101.25;44.78;;;;;;;1.86;64.92;98463.13;5021403;28;20053;-63
2022/12/20 08:49:50;;;;;;;45.75;22.60;;;;;;;4.25;65.02;98803.25;5022133;28;20049;-62
2022/12/20 08:52:17;;;;;;;108.30;42.72;;;;;;;4.43;64.01;98811.59;5022532;28;20076;-60
2022/12/20 08:54:43;;;;;;;33.65;16.25;;;;;;;4.80;63.17;98832.94;5021527;28;20097;-60
2022/12/20 08:57:10;;;;;;;33.90;19.48;;;;;;;2.77;62.42;98493.47;5024314;28;20041;-60
2022/12/20 08:59:37;;;;;;;26.38;12.30;;;;;;;4.96;61.75;98792.41;5024334;28;20053;-58
2022/12/20 09:02:03;;;;;;;16.80;8.27;;;;;;;5.01;58.99;98801.41;5025230;28;20069;-62
2022/12/20 09:04:30;;;;;;;19.60;9.65;;;;;;;5.18;58.72;98809.19;5024437;28;20142;-60
2022/12/20 09:06:57;;;;;;;64.28;33.03;;;;;;;5.32;60.09;98801.88;5025025;28;20136;-62
2022/12/20 09:09:23;;;;;;;38.65;19.42;;;;;;;5.49;58.55;98808.53;5025187;28;20155;-58
2022/12/20 09:11:50;;;;;;;46.88;30.13;;;;;;;5.57;59.43;98802.38;5024831;28;20381;-63
2022/12/20 09:14:18;;;;;;;14.70;9.30;;;;;;;3.02;58.48;98364.63;5024652;28;20049;-60
2022/12/20 09:16:44;;;;;;;58.42;41.05;;;;;;;5.73;57.83;98794.72;5023666;28;20061;-57
2022/12/20 09:19:13;;;;;;;18.77;10.20;;;;;;;5.73;57.19;98789.25;5024346;28;20099;-61
2022/12/20 09:21:39;;;;;;;16.77;6.97;;;;;;;5.92;57.17;98790.91;5022396;28;20095;-60
2022/12/20 09:24:07;;;;;;;13.23;6.70;;;;;;;5.89;57.13;98780.50;5023251;28;20508;-57
2022/12/20 09:26:34;;;;;;;9.80;6.22;;;;;;;6.07;57.35;98784.34;5024287;28;20575;-61
2022/12/20 09:29:01;;;;;;;8.65;4.78;;;;;;;6.10;55.68;98775.53;5022010;28;20041;-60
2022/12/20 09:31:28;;;;;;;7.65;3.33;;;;;;;5.47;55.01;98678.03;5021372;28;20195;-60
2022/12/20 09:33:57;;;;;;;4.68;2.22;;;;;;;5.49;54.36;98681.28;5024412;28;20045;-63
2022/12/20 09:36:25;;;;;;;5.05;2.20;;;;;;;5.77;55.07;98727.06;5038735;28;20115;-63
2022/12/20 09:38:53;;;;;;;9.98;3.63;;;;;;;5.90;56.30;98759.31;5023985;28;20488;-60
2022/12/20 09:41:33;;;;;;;9.82;2.60;;;;;;;6.04;55.69;98755.50;5024130;28;20103;-60
2022/12/20 09:44:04;;;;;;;5.78;4.25;;;;;;;5.87;56.01;98737.91;5022974;28;20084;-63
2022/12/20 09:46:32;;;;;;;6.32;4.22;;;;;;;6.49;55.51;98739.34;5021493;28;20060;-61
2022/12/20 09:48:59;;;;;;;7.85;5.65;;;;;;;6.40;56.00;98742.00;5023239;28;20103;-60
2022/12/20 09:51:37;;;;;;;8.98;4.00;;;;;;;6.32;55.67;98734.44;5023416;28;20169;-59
2022/12/20 09:54:12;;;;;;;6.68;3.25;;;;;;;5.53;56.04;98737.31;5022513;28;20057;-61
2022/12/20 09:56:42;;;;;;;4.32;2.47;;;;;;;5.55;55.87;98715.81;5022978;28;20137;-60
2022/12/20 09:59:16;;;;;;;4.28;2.10;;;;;;;3.45;55.64;98338.94;5019965;28;20045;-69
2022/12/20 10:01:46;;;;;;;5.10;2.33;;;;;;;5.93;56.73;98709.22;5020804;28;20269;-64
2022/12/20 10:04:27;;;;;;;39.75;27.73;;;;;;;5.37;57.01;98579.25;5021999;28;20049;-64
2022/12/20 10:07:03;;;;;;;7.05;3.55;;;;;;;6.26;56.63;98699.84;5019980;28;20061;-61
2022/12/20 10:10:15;;;;;;;5.15;3.10;;;;;;;5.99;57.16;98691.53;5022425;28;20068;-60
2022/12/20 10:13:21;;;;;;;6.78;3.22;;;;;;;5.46;58.30;98696.44;5023358;28;20060;-60
2022/12/20 10:16:09;;;;;;;5.15;3.13;;;;;;;3.28;57.08;98269.34;5023118;28;20164;-60
2022/12/20 10:19:29;;;;;;;11.77;4.32;;;;;;;5.25;57.75;98688.78;5023438;28;20105;-58
2022/12/20 10:22:17;;;;;;;10.38;5.70;;;;;;;5.67;58.33;98678.53;5020216;28;20062;-59
2022/12/20 10:24:54;;;;;;;12.60;5.25;;;;;;;5.13;56.62;98551.06;5023940;28;20459;-60
2022/12/20 10:27:21;;;;;;;15.75;7.88;;;;;;;5.81;57.52;98670.34;5022996;28;20057;-58
2022/12/20 10:29:49;;;;;;;21.20;11.20;;;;;;;6.24;57.15;98665.50;5021770;28;20416;-59
2022/12/20 10:32:19;;;;;;;6.18;2.53;;;;;;;5.90;55.25;98589.63;5021861;28;20054;-60
2022/12/20 10:35:09;;;;;;;6.07;2.80;;;;;;;6.34;55.32;98655.13;5024166;28;20447;-60
2022/12/20 10:37:37;;;;;;;4.32;2.10;;;;;;;5.67;55.75;98546.59;5021753;28;20041;-58
2022/12/20 10:40:26;;;;;;;10.13;4.63;;;;;;;6.33;55.61;98645.25;5023450;28;20041;-61
2022/12/20 10:43:18;;;;;;;6.93;3.63;;;;;;;6.32;55.32;98651.88;5021980;28;20084;-62
2022/12/20 10:45:59;;;;;;;5.65;2.63;;;;;;;6.49;56.16;98640.25;5023215;28;20551;-59
2022/12/20 10:48:30;;;;;;;7.22;3.50;;;;;;;6.58;55.08;98633.72;5023542;28;20053;-60
2022/12/20 10:51:16;;;;;;;7.28;3.63;;;;;;;6.43;55.70;98634.03;5023484;28;20104;-59
2022/12/20 10:54:18;;;;;;;7.65;2.97;;;;;;;6.35;55.25;98623.75;5023454;28;20463;-60
2022/12/20 10:56:58;;;;;;;7.57;2.65;;;;;;;6.04;55.86;98633.66;5021802;28;20060;-59
2022/12/20 10:59:32;;;;;;;4.50;1.98;;;;;;;6.12;56.76;98641.22;5015438;28;20111;-58
2022/12/20 11:01:59;;;;;;;4.90;2.80;;;;;;;6.11;56.10;98612.09;5023585;28;20050;-60
2022/12/20 11:04:31;;;;;;;5.90;2.47;;;;;;;6.34;55.06;98619.34;5023384;28;21050;-58
2022/12/20 11:07:00;;;;;;;7.57;2.28;;;;;;;6.35;55.13;98670.53;5023179;28;20057;-59
2022/12/20 11:09:37;;;;;;;5.38;2.08;;;;;;;5.55;57.17;98608.63;5020733;28;20061;-61
2022/12/20 11:12:15;;;;;;;5.10;2.67;;;;;;;5.42;58.22;98620.41;5023109;28;20132;-62
2022/12/20 11:14:43;;;;;;;5.03;2.50;;;;;;;3.74;56.50;98290.34;5021586;28;20049;-63
2022/12/20 11:17:10;;;;;;;3.75;2.17;;;;;;;6.10;56.55;98604.97;5021925;28;20065;-64
2022/12/20 11:19:56;;;;;;;17.23;8.88;;;;;;;6.37;56.59;98590.41;5022707;28;20059;-60
2022/12/20 11:22:25;;;;;;;13.35;6.80;;;;;;;6.70;56.59;98586.44;5021252;28;20115;-61
2022/12/20 11:25:17;;;;;;;23.90;10.60;;;;;;;7.09;55.50;98579.22;5022456;28;20121;-58
2022/12/20 11:27:47;;;;;;;7.05;3.47;;;;;;;7.22;54.42;98564.56;5021493;28;20520;-59
2022/12/20 11:30:17;;;;;;;10.15;4.45;;;;;;;7.40;52.87;98555.31;5021084;28;20069;-66
2022/12/20 11:32:46;;;;;;;9.45;4.78;;;;;;;7.45;53.38;98552.44;5021485;28;20070;-61
2022/12/20 11:35:54;;;;;;;12.18;6.47;;;;;;;7.67;52.88;98513.81;5022814;28;20056;-63
2022/12/20 11:38:39;;;;;;;8.82;3.42;;;;;;;6.39;53.49;98487.16;5004358;28;20052;-58
2022/12/20 11:41:06;;;;;;;4.38;2.45;;;;;;;7.23;53.24;98546.91;5025904;28;20045;-67
2022/12/20 11:43:33;;;;;;;9.00;4.20;;;;;;;7.57;52.94;98540.84;5020471;28;20057;-59
2022/12/20 11:46:37;;;;;;;8.70;3.90;;;;;;;7.63;52.34;98540.38;5025895;28;20282;-61
2022/12/20 11:49:39;;;;;;;6.72;3.33;;;;;;;7.57;52.98;98535.31;5021482;28;20057;-62
2022/12/20 11:52:32;;;;;;;7.22;3.90;;;;;;;7.58;52.87;98532.25;5016783;28;20221;-59
2022/12/20 11:55:08;;;;;;;6.17;3.50;;;;;;;7.16;53.22;98485.88;5022179;28;20125;-59